Time;durP1;ratioP1;P1;durP2;ratioP2;P2;SDS_P1;SDS_P2;PMS_P1;PMS_P2;Temp;Humidity;BMP_temperature;BMP_pressure;BME280_temperature;BME280_humidity;BME280_pressure;Samples;Min_cycle;Max_cycle;Signal;HPM_P1;HPM_P2
2022/05/26 00:02:03;;;;;;;3.83;1.30;;;;;;;22.23;54.57;100779.41;4989212;28;20173;-70
2022/05/26 00:04:28;;;;;;;3.80;1.13;;;;;;;22.21;54.63;100779.00;4972575;28;20287;-71
2022/05/26 00:06:55;;;;;;;7.53;1.40;;;;;;;22.19;53.97;100778.56;4972637;28;20509;-71
2022/05/26 00:09:21;;;;;;;5.67;1.53;;;;;;;22.19;54.67;100781.44;4972962;28;20215;-72
2022/05/26 00:11:46;;;;;;;3.97;1.40;;;;;;;22.18;54.37;100776.88;4972970;28;20420;-71
2022/05/26 00:14:12;;;;;;;3.50;1.40;;;;;;;22.17;54.16;100786.75;4991827;28;20609;-72
2022/05/26 00:16:42;;;;;;;3.63;1.10;;;;;;;22.15;54.39;100785.47;4979922;28;20180;-71
2022/05/26 00:19:07;;;;;;;6.00;1.50;;;;;;;22.12;54.34;100783.41;4995674;28;20181;-72
2022/05/26 00:21:32;;;;;;;3.37;1.43;;;;;;;22.12;54.01;100783.41;5012005;28;20481;-71
2022/05/26 00:23:58;;;;;;;3.60;1.10;;;;;;;22.11;54.48;100785.44;4978981;28;20184;-74
2022/05/26 00:26:24;;;;;;;7.90;1.60;;;;;;;22.10;53.93;100786.69;5010938;28;20204;-71
2022/05/26 00:28:49;;;;;;;4.63;1.20;;;;;;;22.09;54.45;100785.03;4991576;28;20260;-73
2022/05/26 00:31:15;;;;;;;3.57;1.20;;;;;;;22.07;54.09;100781.69;4972233;28;20264;-72
2022/05/26 00:33:40;;;;;;;3.53;1.30;;;;;;;22.06;53.96;100787.84;4973194;28;20244;-71
2022/05/26 00:36:07;;;;;;;5.43;1.20;;;;;;;22.05;54.28;100789.06;4972423;28;20169;-73
2022/05/26 00:38:32;;;;;;;3.20;1.17;;;;;;;22.04;54.15;100798.91;4975915;28;20189;-71
2022/05/26 00:41:02;;;;;;;7.20;1.50;;;;;;;22.02;54.34;100792.75;4975201;28;20455;-73
2022/05/26 00:43:28;;;;;;;1.90;0.80;;;;;;;22.02;53.70;100795.63;4992425;28;20191;-71
2022/05/26 00:45:59;;;;;;;3.10;1.50;;;;;;;22.01;54.25;100793.94;5009504;28;20714;-72
2022/05/26 00:48:26;;;;;;;2.93;0.93;;;;;;;22.00;53.78;100798.88;4992100;28;20189;-73
2022/05/26 00:50:53;;;;;;;1.90;0.90;;;;;;;21.98;53.88;100795.56;4975192;28;20423;-74
2022/05/26 00:53:23;;;;;;;2.70;1.23;;;;;;;21.98;53.77;100798.44;4976377;28;20419;-71
2022/05/26 00:55:58;;;;;;;6.23;1.10;;;;;;;21.98;53.59;100791.88;4974878;28;21004;-71
2022/05/26 00:58:28;;;;;;;2.23;0.90;;;;;;;21.97;53.70;100793.91;4992092;28;20976;-72
2022/05/26 01:00:54;;;;;;;4.33;1.63;;;;;;;21.96;54.13;100797.16;4975914;28;20424;-71
2022/05/26 01:03:28;;;;;;;2.50;0.97;;;;;;;21.96;54.07;100800.03;4975853;28;20518;-72
2022/05/26 01:06:01;;;;;;;3.40;1.00;;;;;;;21.94;53.93;100797.59;4959748;28;20326;-73
2022/05/26 01:09:01;;;;;;;3.67;1.43;;;;;;;21.93;53.93;100798.78;4995272;28;20917;-71
2022/05/26 01:11:29;;;;;;;2.23;0.83;;;;;;;21.93;54.02;100803.72;4995435;28;20400;-72
2022/05/26 01:14:00;;;;;;;3.63;1.40;;;;;;;21.91;53.65;100795.47;4979318;28;20525;-72
2022/05/26 01:16:44;;;;;;;3.10;1.00;;;;;;;21.91;53.71;100795.47;4981468;28;20482;-73
2022/05/26 01:19:34;;;;;;;3.17;1.10;;;;;;;21.90;53.32;100793.00;5019989;28;20408;-71
2022/05/26 01:22:34;;;;;;;5.10;1.00;;;;;;;21.89;53.77;100792.19;5012400;28;20453;-71
2022/05/26 01:25:21;;;;;;;7.37;1.13;;;;;;;21.88;53.18;100789.69;4996409;28;20559;-73
2022/05/26 01:28:01;;;;;;;3.00;1.23;;;;;;;21.88;53.70;100789.69;5011726;28;20395;-72
2022/05/26 01:30:49;;;;;;;3.93;1.37;;;;;;;21.88;53.56;100790.50;4978979;28;20426;-72
2022/05/26 01:33:33;;;;;;;2.67;0.90;;;;;;;21.87;53.49;100788.84;4978963;28;20419;-72
2022/05/26 01:36:13;;;;;;;2.43;1.00;;;;;;;21.87;53.44;100783.09;5012301;28;20446;-73
2022/05/26 01:39:02;;;;;;;2.10;1.10;;;;;;;21.87;53.10;100794.59;4995554;28;20420;-73
2022/05/26 01:41:33;;;;;;;2.07;0.90;;;;;;;21.87;53.02;100793.78;4998136;28;20938;-72
2022/05/26 01:44:31;;;;;;;1.80;1.00;;;;;;;21.86;53.20;100798.69;5011133;28;20739;-72
2022/05/26 01:46:59;;;;;;;2.23;0.97;;;;;;;21.86;53.18;100795.81;4981749;28;20436;-72
2022/05/26 01:49:33;;;;;;;4.37;1.20;;;;;;;21.86;53.54;100792.94;4992460;28;20424;-72
2022/05/26 01:52:27;;;;;;;2.20;1.10;;;;;;;21.85;53.41;100794.19;4961881;28;20428;-72
2022/05/26 01:55:17;;;;;;;4.70;1.07;;;;;;;21.87;53.24;100799.53;4991343;28;20421;-72
2022/05/26 01:58:09;;;;;;;4.50;1.20;;;;;;;21.86;53.37;100801.56;4967065;28;20441;-74
2022/05/26 02:00:34;;;;;;;2.60;1.07;;;;;;;21.85;53.53;100790.47;4968621;28;20758;-73
2022/05/26 02:03:11;;;;;;;2.30;0.90;;;;;;;21.85;53.55;100801.97;4956407;28;20487;-71
2022/05/26 02:05:42;;;;;;;2.00;0.97;;;;;;;21.84;53.43;100800.31;4956841;28;20264;-71
2022/05/26 02:08:12;;;;;;;2.70;1.00;;;;;;;21.84;53.21;100806.06;4973509;28;20479;-71
2022/05/26 02:10:43;;;;;;;3.10;1.00;;;;;;;21.83;53.10;100796.59;4961090;28;20439;-71
2022/05/26 02:13:13;;;;;;;3.43;0.93;;;;;;;21.82;53.24;100809.31;4992392;28;20455;-72
2022/05/26 02:15:47;;;;;;;3.60;1.10;;;;;;;21.82;53.29;100806.44;4976857;28;20906;-72
2022/05/26 02:18:41;;;;;;;5.63;1.13;;;;;;;21.82;53.48;100803.56;4993841;28;20903;-72
2022/05/26 02:21:09;;;;;;;3.50;1.00;;;;;;;21.81;53.38;100807.66;5014432;28;20471;-71
2022/05/26 02:23:44;;;;;;;2.77;1.00;;;;;;;21.80;53.70;100811.78;5031342;28;20430;-72
2022/05/26 02:26:10;;;;;;;2.97;0.90;;;;;;;21.80;53.70;100806.03;4980217;28;20470;-73
2022/05/26 02:31:21;;;;;;;3.60;1.17;;;;;;;21.78;53.01;100808.44;5011911;28;20399;-71
2022/05/26 02:33:46;;;;;;;2.20;1.10;;;;;;;21.78;53.32;100805.56;4961621;28;20531;-72
2022/05/26 02:36:11;;;;;;;2.70;1.00;;;;;;;21.77;53.21;100803.91;4976167;28;20531;-72
2022/05/26 02:38:37;;;;;;;5.33;1.60;;;;;;;21.78;53.22;100802.69;4993476;28;20212;-72
2022/05/26 02:41:02;;;;;;;2.57;0.80;;;;;;;21.77;53.45;100814.59;4991867;28;20602;-72
2022/05/26 02:43:28;;;;;;;2.70;1.10;;;;;;;21.77;53.38;100817.47;5009943;28;20487;-71
2022/05/26 02:46:15;;;;;;;2.30;1.07;;;;;;;21.76;53.12;100810.88;4976844;28;20205;-71
2022/05/26 02:48:53;;;;;;;3.73;1.00;;;;;;;21.77;53.04;100815.41;5011087;28;20419;-71
2022/05/26 02:51:23;;;;;;;2.50;1.00;;;;;;;21.76;53.14;100818.66;5010622;28;20974;-72
2022/05/26 02:53:56;;;;;;;3.10;1.37;;;;;;;21.75;53.22;100811.28;4976993;28;20498;-71
2022/05/26 02:56:52;;;;;;;2.63;1.07;;;;;;;21.75;53.26;100822.78;4961743;28;20515;-72
2022/05/26 02:59:41;;;;;;;4.07;1.20;;;;;;;21.73;53.20;100819.47;4962034;28;20511;-71
2022/05/26 03:02:10;;;;;;;2.93;0.90;;;;;;;21.73;53.09;100820.28;4995896;28;20915;-73
2022/05/26 03:04:42;;;;;;;2.00;1.00;;;;;;;21.73;53.14;100816.59;4977238;28;20482;-72
2022/05/26 03:07:10;;;;;;;1.93;0.97;;;;;;;21.73;53.33;100820.28;4993960;28;20813;-72
2022/05/26 03:09:36;;;;;;;2.97;1.00;;;;;;;21.73;53.37;100822.34;4957361;28;20429;-73
2022/05/26 03:12:01;;;;;;;2.60;1.00;;;;;;;21.72;53.06;100812.88;4973911;28;20499;-72
2022/05/26 03:14:27;;;;;;;2.37;1.00;;;;;;;21.71;53.22;100819.84;4955590;28;20417;-73
2022/05/26 03:16:52;;;;;;;4.03;0.80;;;;;;;21.72;53.46;100824.38;4950762;28;20561;-73
2022/05/26 03:19:18;;;;;;;2.80;1.10;;;;;;;21.72;53.43;100827.25;5027912;28;20234;-72
2022/05/26 03:21:43;;;;;;;2.87;1.03;;;;;;;21.72;52.76;100830.13;4978112;28;20530;-71
2022/05/26 03:24:09;;;;;;;1.97;0.80;;;;;;;21.72;53.43;100823.56;4994831;28;20271;-71
2022/05/26 03:26:34;;;;;;;2.30;1.07;;;;;;;21.71;52.92;100825.59;4994730;28;20187;-72
2022/05/26 03:29:00;;;;;;;3.77;1.10;;;;;;;21.71;52.90;100825.59;4994979;28;20177;-73
2022/05/26 03:31:25;;;;;;;1.90;0.97;;;;;;;21.72;53.23;100823.56;4994781;28;20572;-71
2022/05/26 03:42:04;;;;;;;2.00;0.80;;;;;;;21.70;53.01;100834.59;4995605;28;20482;-73
2022/05/26 03:44:30;;;;;;;3.23;1.00;;;;;;;21.69;53.09;100833.78;4976583;28;20510;-73
2022/05/26 03:46:55;;;;;;;2.50;1.27;;;;;;;21.70;53.26;100835.44;4960699;28;20932;-71
2022/05/26 03:49:21;;;;;;;3.87;1.00;;;;;;;21.70;53.19;100843.22;4976085;28;20188;-71
2022/05/26 03:51:46;;;;;;;2.63;1.00;;;;;;;21.69;52.81;100842.41;4976210;28;20161;-72
2022/05/26 03:54:12;;;;;;;1.93;1.07;;;;;;;21.69;52.76;100838.72;4992492;28;20196;-71
2022/05/26 03:56:37;;;;;;;2.40;1.00;;;;;;;21.68;52.96;100839.91;4992874;28;20176;-72
2022/05/26 03:59:03;;;;;;;2.47;1.00;;;;;;;21.67;52.97;100841.94;4992823;28;20192;-72
2022/05/26 04:01:28;;;;;;;2.93;0.83;;;;;;;21.67;53.27;100847.69;4992233;28;20188;-72
2022/05/26 04:03:55;;;;;;;2.70;1.10;;;;;;;21.68;52.97;100852.22;4959715;28;20216;-72
2022/05/26 04:06:21;;;;;;;5.10;1.40;;;;;;;21.67;53.25;100844.00;4957179;28;20332;-71
2022/05/26 04:08:47;;;;;;;3.00;0.90;;;;;;;21.68;52.44;100845.66;4987306;28;20786;-71
2022/05/26 04:11:12;;;;;;;1.90;0.70;;;;;;;21.66;52.74;100854.66;4970551;28;20428;-72
2022/05/26 04:13:37;;;;;;;5.93;1.20;;;;;;;21.66;53.08;100860.41;4987112;28;20173;-71
2022/05/26 04:16:03;;;;;;;2.30;0.90;;;;;;;21.65;53.32;100861.63;4971012;28;20597;-73
2022/05/26 04:18:29;;;;;;;2.00;0.90;;;;;;;21.66;53.07;100871.88;4989530;28;20206;-71
2022/05/26 04:21:06;;;;;;;2.57;1.00;;;;;;;21.66;53.26;100862.44;4990393;28;20176;-71
2022/05/26 04:23:31;;;;;;;2.50;0.93;;;;;;;21.65;53.21;100863.66;4992488;28;20176;-74
2022/05/26 04:25:56;;;;;;;2.47;1.17;;;;;;;21.65;53.30;100861.63;4976061;28;20452;-71
2022/05/26 04:28:22;;;;;;;2.00;1.00;;;;;;;21.63;53.31;100858.28;5006011;28;20177;-72
2022/05/26 04:30:48;;;;;;;4.37;1.50;;;;;;;21.64;52.92;100870.63;4990250;28;20177;-71
2022/05/26 04:33:13;;;;;;;5.07;1.30;;;;;;;21.65;52.67;100869.41;4972112;28;20177;-72
2022/05/26 04:35:39;;;;;;;3.93;1.10;;;;;;;21.65;53.13;100866.53;4989163;28;20180;-73
2022/05/26 04:38:04;;;;;;;2.83;1.40;;;;;;;21.64;52.92;100870.63;4988544;28;20185;-72
2022/05/26 04:40:30;;;;;;;2.17;0.80;;;;;;;21.64;53.15;100870.63;4972539;28;20201;-72
2022/05/26 04:42:55;;;;;;;2.50;1.00;;;;;;;21.64;53.02;100873.50;4975184;28;20192;-71
2022/05/26 04:45:20;;;;;;;2.13;0.80;;;;;;;21.63;53.00;100875.53;4975903;28;20205;-73
2022/05/26 04:47:46;;;;;;;2.80;0.90;;;;;;;21.63;53.01;100881.28;4975941;28;20640;-71
2022/05/26 04:50:11;;;;;;;3.10;0.93;;;;;;;21.63;53.07;100880.47;4994082;28;20178;-72
2022/05/26 04:52:37;;;;;;;2.30;1.07;;;;;;;21.62;53.40;100891.13;4976572;28;20181;-72
2022/05/26 04:55:04;;;;;;;3.43;1.00;;;;;;;21.61;52.94;100889.47;4976770;28;20180;-71
2022/05/26 04:57:29;;;;;;;1.77;0.80;;;;;;;21.63;52.92;100881.28;4976917;28;20633;-72
2022/05/26 04:59:55;;;;;;;2.73;1.00;;;;;;;21.64;53.15;100893.63;4976172;28;20432;-73
2022/05/26 05:02:21;;;;;;;3.60;1.00;;;;;;;21.68;52.77;100894.50;4960014;28;20178;-73
2022/05/26 05:04:48;;;;;;;2.10;0.90;;;;;;;21.70;52.96;100886.34;4958812;28;20229;-73
2022/05/26 05:07:15;;;;;;;2.10;0.97;;;;;;;21.71;52.94;100896.63;4973027;28;20452;-71
2022/05/26 05:09:41;;;;;;;2.00;1.00;;;;;;;21.69;53.09;100894.16;4957575;28;20602;-71
2022/05/26 05:12:07;;;;;;;1.87;0.83;;;;;;;21.64;52.62;100894.47;4957344;28;20429;-72
2022/05/26 05:14:41;;;;;;;2.00;1.00;;;;;;;21.61;52.83;100892.34;4973840;28;20189;-72
2022/05/26 05:17:07;;;;;;;2.73;1.00;;;;;;;21.59;52.92;100896.81;4990305;28;20834;-71
2022/05/26 05:19:32;;;;;;;3.80;1.00;;;;;;;21.59;52.92;100906.28;4975752;28;20426;-72
2022/05/26 05:22:27;;;;;;;1.93;0.80;;;;;;;21.60;53.01;100901.34;4956406;28;20178;-74
2022/05/26 05:24:59;;;;;;;3.73;1.17;;;;;;;21.58;53.01;100907.47;4969646;28;20226;-72
2022/05/26 05:27:58;;;;;;;2.83;1.10;;;;;;;21.57;53.35;100905.00;4957470;28;20507;-71
2022/05/26 05:30:29;;;;;;;2.00;0.80;;;;;;;21.59;53.25;100911.19;4962322;28;20446;-71
2022/05/26 05:32:58;;;;;;;3.70;0.80;;;;;;;21.57;53.03;100905.00;4973935;28;20479;-72
2022/05/26 05:35:54;;;;;;;2.30;1.17;;;;;;;21.56;53.37;100912.78;4974744;28;20425;-74
2022/05/26 05:38:19;;;;;;;3.67;1.43;;;;;;;21.56;52.72;100912.78;4997691;28;20509;-73
2022/05/26 05:40:45;;;;;;;2.20;1.00;;;;;;;21.57;52.62;100925.13;4974530;28;20465;-71
2022/05/26 05:43:10;;;;;;;1.90;0.80;;;;;;;21.55;53.17;100916.88;4975535;28;20170;-72
2022/05/26 05:45:37;;;;;;;2.50;0.97;;;;;;;21.55;52.97;100921.78;4975338;28;20289;-72
2022/05/26 05:48:03;;;;;;;2.20;1.00;;;;;;;21.55;52.89;100930.41;4991645;28;20182;-73
2022/05/26 05:50:28;;;;;;;2.83;1.00;;;;;;;21.54;52.97;100925.88;4991583;28;20428;-71
2022/05/26 05:52:54;;;;;;;2.23;1.00;;;;;;;21.55;52.84;100927.53;4975494;28;20185;-72
2022/05/26 05:55:19;;;;;;;3.07;1.00;;;;;;;21.56;52.77;100926.31;4974303;28;20181;-71
2022/05/26 05:57:45;;;;;;;3.50;1.50;;;;;;;21.57;52.64;100928.81;4991515;28;20185;-73
2022/05/26 06:00:11;;;;;;;2.50;0.90;;;;;;;21.59;53.46;100940.75;4991663;28;20282;-72
2022/05/26 06:02:36;;;;;;;1.70;0.80;;;;;;;21.61;53.12;100929.69;4992584;28;20201;-71
2022/05/26 06:05:02;;;;;;;2.37;1.00;;;;;;;21.62;52.85;100937.09;4991328;28;20232;-73
2022/05/26 06:07:27;;;;;;;2.87;0.70;;;;;;;21.65;52.96;100944.97;4975381;28;20649;-73
2022/05/26 06:09:53;;;;;;;3.97;1.27;;;;;;;21.63;52.92;100938.75;4992231;28;20645;-72
2022/05/26 06:12:18;;;;;;;3.47;0.80;;;;;;;21.60;52.69;100938.69;4991462;28;20664;-71
2022/05/26 06:14:44;;;;;;;3.20;1.30;;;;;;;21.59;53.10;100943.63;4975094;28;20774;-73
2022/05/26 06:17:12;;;;;;;2.63;1.07;;;;;;;21.58;52.80;100941.97;4982978;28;20184;-71
2022/05/26 06:19:38;;;;;;;1.90;0.90;;;;;;;21.57;53.10;100951.00;5010251;28;20177;-72
2022/05/26 06:22:07;;;;;;;2.27;1.00;;;;;;;21.57;53.29;100957.53;4974466;28;20429;-72
2022/05/26 06:24:32;;;;;;;2.37;1.17;;;;;;;21.56;53.10;100955.91;4992047;28;20428;-72
2022/05/26 06:26:58;;;;;;;3.63;0.97;;;;;;;21.55;52.81;100953.41;4992135;28;20409;-72
2022/05/26 06:37:38;;;;;;;2.60;1.03;;;;;;;21.56;52.25;100972.28;4990609;28;20784;-71
2022/05/26 06:40:05;;;;;;;1.83;0.80;;;;;;;21.56;52.73;100973.13;4974039;28;20800;-71
2022/05/26 06:42:31;;;;;;;2.03;0.90;;;;;;;21.54;53.28;100972.69;4990734;28;20935;-72
2022/05/26 06:44:56;;;;;;;2.27;1.03;;;;;;;21.53;52.60;100976.75;4991735;28;20460;-71
2022/05/26 06:47:22;;;;;;;3.90;0.97;;;;;;;21.54;52.76;100980.47;4990970;28;20162;-71
2022/05/26 06:49:47;;;;;;;2.57;0.90;;;;;;;21.54;53.00;100980.47;4990062;28;20705;-72
2022/05/26 06:52:13;;;;;;;2.00;1.10;;;;;;;21.52;52.99;100977.97;4958506;28;20189;-72
2022/05/26 06:54:41;;;;;;;2.20;1.00;;;;;;;21.53;53.14;100984.56;4956928;28;20174;-72
2022/05/26 06:57:07;;;;;;;3.80;0.97;;;;;;;21.53;52.73;100993.19;4973976;28;20459;-71
2022/05/26 06:59:33;;;;;;;4.03;1.30;;;;;;;21.52;53.16;100982.94;4973582;28;20437;-71
2022/05/26 07:01:58;;;;;;;2.40;0.87;;;;;;;21.50;52.92;100983.31;4958495;28;20185;-72
2022/05/26 07:04:28;;;;;;;1.60;0.83;;;;;;;21.51;53.14;100993.56;4989990;28;20499;-72
2022/05/26 07:06:53;;;;;;;2.27;0.80;;;;;;;21.52;52.49;100994.41;4993930;28;20227;-71
2022/05/26 07:09:20;;;;;;;3.13;0.87;;;;;;;21.52;52.38;100997.28;4976268;28;20459;-72
2022/05/26 07:11:45;;;;;;;2.63;0.97;;;;;;;21.51;52.98;100993.56;4976536;28;20182;-72
2022/05/26 07:14:12;;;;;;;3.10;1.07;;;;;;;21.49;52.96;100996.00;4993386;28;20419;-72
2022/05/26 07:16:37;;;;;;;2.80;0.97;;;;;;;21.51;52.80;100993.56;4997237;28;20179;-72
2022/05/26 07:19:03;;;;;;;7.17;1.30;;;;;;;21.50;52.87;100989.03;5011462;28;20399;-72
2022/05/26 07:21:28;;;;;;;3.40;0.90;;;;;;;21.49;53.15;100984.53;4988863;28;20193;-71
2022/05/26 07:23:53;;;;;;;4.97;1.13;;;;;;;21.49;52.78;100993.13;4983448;28;20746;-72
2022/05/26 07:26:19;;;;;;;3.53;1.13;;;;;;;21.49;53.03;100998.88;4966044;28;20273;-72
2022/05/26 07:28:44;;;;;;;1.93;0.90;;;;;;;21.49;52.74;100992.28;4979052;28;20544;-72
2022/05/26 07:31:11;;;;;;;5.00;1.20;;;;;;;21.47;52.53;100992.69;4995508;28;20177;-70
2022/05/26 07:33:36;;;;;;;3.10;1.27;;;;;;;21.46;52.83;101002.53;4950319;28;20636;-72
2022/05/26 07:36:02;;;;;;;2.53;0.90;;;;;;;21.45;52.41;100994.28;4980478;28;20433;-71
2022/05/26 07:41:19;;;;;;;1.73;0.90;;;;;;;21.45;52.54;101011.50;4982821;28;20172;-72
2022/05/26 07:43:52;;;;;;;2.83;0.90;;;;;;;21.45;52.47;101000.88;4991425;28;20404;-72
2022/05/26 07:46:17;;;;;;;3.40;1.07;;;;;;;21.46;52.30;101016.88;5009927;28;21003;-74
2022/05/26 07:48:43;;;;;;;5.63;0.97;;;;;;;21.45;52.31;101017.25;4999790;28;20428;-72
2022/05/26 07:51:08;;;;;;;4.03;1.03;;;;;;;;;;4957440;28;20177;-72
2022/05/26 07:53:33;;;;;;;2.87;1.00;;;;;;;;;;4985327;28;20231;-70
2022/05/26 07:56:01;;;;;;;5.03;1.10;;;;;;;;;;4992550;28;20644;-72
2022/05/26 07:58:27;;;;;;;2.07;0.90;;;;;;;;;;4993413;28;20294;-72
2022/05/26 08:00:53;;;;;;;2.50;0.80;;;;;;;21.46;52.62;101014.00;4975503;28;20574;-73
2022/05/26 08:03:19;;;;;;;1.87;0.80;;;;;;;21.44;52.32;101021.34;4991472;28;20232;-71
2022/05/26 08:05:44;;;;;;;3.37;0.93;;;;;;;21.47;51.89;101021.41;5007075;28;20587;-70
2022/05/26 08:08:09;;;;;;;3.37;1.00;;;;;;;21.49;51.69;101021.88;4977706;28;20233;-73
2022/05/26 08:10:35;;;;;;;20.03;1.80;;;;;;;21.61;51.77;101020.81;4992074;28;20548;-72
2022/05/26 08:13:00;;;;;;;15.97;3.40;;;;;;;21.68;53.11;101024.69;4992767;28;20204;-70
2022/05/26 08:15:26;;;;;;;31.77;4.23;;;;;;;21.75;54.83;101027.69;4991946;28;20200;-71
2022/05/26 08:17:51;;;;;;;39.97;4.67;;;;;;;21.77;54.23;101033.88;5005332;28;20204;-71
2022/05/26 08:20:17;;;;;;;32.23;3.57;;;;;;;21.83;54.56;101026.56;4977291;28;20176;-70
2022/05/26 08:22:43;;;;;;;33.53;4.23;;;;;;;21.88;55.09;101031.19;4976102;28;20661;-70
2022/05/26 08:25:09;;;;;;;46.77;3.60;;;;;;;21.90;54.61;101035.34;4948194;28;20205;-70
2022/05/26 08:27:34;;;;;;;22.87;2.50;;;;;;;21.87;55.06;101035.28;4974313;28;20184;-70
2022/05/26 08:30:00;;;;;;;32.70;3.30;;;;;;;21.91;54.84;101041.88;4957642;28;20451;-72
2022/05/26 08:32:26;;;;;;;25.03;3.17;;;;;;;21.90;54.70;101043.13;4974483;28;20713;-73
2022/05/26 08:35:05;;;;;;;17.43;2.20;;;;;;;21.95;54.31;101048.53;4958047;28;20169;-71
2022/05/26 08:37:30;;;;;;;17.33;2.23;;;;;;;21.94;54.09;101047.72;4975696;28;20915;-72
2022/05/26 08:39:56;;;;;;;21.77;2.67;;;;;;;21.94;54.49;101050.59;4975508;28;20412;-70
2022/05/26 08:42:27;;;;;;;19.57;2.13;;;;;;;22.00;53.96;101051.94;5009766;28;20217;-70
2022/05/26 08:44:55;;;;;;;12.40;2.03;;;;;;;21.98;54.42;101054.34;4976668;28;20200;-70
2022/05/26 08:47:21;;;;;;;28.03;1.80;;;;;;;22.01;53.88;101056.44;5009572;28;20432;-73
2022/05/26 08:49:48;;;;;;;14.17;1.90;;;;;;;21.95;54.34;101052.25;4959137;28;20424;-71
2022/05/26 08:52:15;;;;;;;13.53;1.67;;;;;;;21.95;54.40;101060.88;4991670;28;20415;-73
2022/05/26 08:54:51;;;;;;;10.37;1.60;;;;;;;21.95;53.84;101055.13;4974512;28;20768;-74
2022/05/26 08:57:20;;;;;;;10.60;1.90;;;;;;;21.98;54.77;101057.22;4974988;28;20416;-74
2022/05/26 08:59:46;;;;;;;9.83;1.73;;;;;;;22.01;54.78;101058.50;4974634;28;20433;-71
2022/05/26 09:02:34;;;;;;;16.90;2.00;;;;;;;22.05;54.54;101057.34;4990289;28;20482;-71
2022/05/26 09:05:20;;;;;;;8.63;1.50;;;;;;;21.97;54.22;101069.13;4973785;28;20229;-70
2022/05/26 09:13:34;;;;;;;9.47;1.67;;;;;;;21.90;54.77;101069.00;4980537;28;20395;-74
2022/05/26 09:16:00;;;;;;;6.50;2.10;;;;;;;21.89;54.90;101067.34;4959479;28;20420;-74
2022/05/26 09:18:25;;;;;;;9.83;1.83;;;;;;;21.88;54.30;101071.44;4975028;28;20173;-73
2022/05/26 09:20:51;;;;;;;6.13;1.47;;;;;;;21.85;54.81;101073.03;5008626;28;20178;-71
2022/05/26 09:23:25;;;;;;;6.50;1.40;;;;;;;21.84;54.01;101071.38;4991648;28;20173;-70
2022/05/26 09:25:53;;;;;;;5.30;1.30;;;;;;;21.84;54.63;101073.41;4959103;28;20241;-72
2022/05/26 09:28:27;;;;;;;7.30;1.50;;;;;;;21.86;54.09;101080.44;4991854;28;20428;-70
2022/05/26 09:30:53;;;;;;;3.40;1.20;;;;;;;21.85;53.94;101077.94;4974417;28;20454;-70
2022/05/26 09:33:26;;;;;;;6.13;1.10;;;;;;;21.85;53.63;101072.19;4979719;28;20428;-72
2022/05/26 09:35:51;;;;;;;7.40;1.40;;;;;;;21.85;53.71;101078.78;4945899;28;20440;-73
2022/05/26 09:38:18;;;;;;;3.97;1.63;;;;;;;21.94;54.03;101072.75;4993654;28;20800;-70
2022/05/26 09:40:48;;;;;;;3.13;1.30;;;;;;;22.01;53.94;101072.88;4979329;28;20235;-70
2022/05/26 09:43:16;;;;;;;3.83;1.23;;;;;;;22.03;53.93;101070.44;4980349;28;20420;-72
2022/05/26 09:45:45;;;;;;;3.53;1.30;;;;;;;22.02;54.48;101084.00;4995619;28;20974;-70
2022/05/26 09:48:18;;;;;;;4.20;0.90;;;;;;;22.07;54.13;101089.41;4979427;28;20570;-74
2022/05/26 09:50:48;;;;;;;5.80;1.30;;;;;;;22.07;54.43;101089.41;4978035;28;20455;-74
2022/05/26 09:53:15;;;;;;;6.30;1.30;;;;;;;22.02;53.56;101089.75;4964173;28;20869;-73
2022/05/26 09:55:54;;;;;;;2.60;1.10;;;;;;;21.87;52.36;101087.84;4963336;28;20420;-72
2022/05/26 09:58:42;;;;;;;6.87;1.43;;;;;;;21.75;52.26;101099.53;4979416;28;20419;-71
2022/05/26 10:01:26;;;;;;;2.73;0.90;;;;;;;21.70;52.11;101093.28;4980851;28;20478;-71
2022/05/26 10:04:06;;;;;;;6.43;1.50;;;;;;;21.66;52.54;101098.09;5010733;28;20443;-71
2022/05/26 10:06:39;;;;;;;2.87;1.17;;;;;;;21.64;52.02;101104.25;4990697;28;20479;-74
2022/05/26 10:09:26;;;;;;;2.00;0.90;;;;;;;21.69;51.96;101103.13;4974061;28;20543;-72
2022/05/26 10:12:10;;;;;;;4.33;1.17;;;;;;;21.70;51.83;101104.78;4990363;28;20417;-71
2022/05/26 10:15:01;;;;;;;8.67;1.30;;;;;;;21.69;52.31;101103.13;4990506;28;20857;-71
2022/05/26 10:17:57;;;;;;;10.10;1.50;;;;;;;21.69;52.45;101108.88;5000659;28;20416;-70
2022/05/26 10:20:45;;;;;;;8.33;1.27;;;;;;;21.64;52.22;101107.13;5000359;28;20420;-72
2022/05/26 10:23:14;;;;;;;6.70;1.20;;;;;;;21.60;52.59;101106.22;4992133;28;20453;-71
2022/05/26 10:25:51;;;;;;;5.23;1.33;;;;;;;21.58;52.64;101105.75;4991358;28;20786;-71
2022/05/26 10:28:42;;;;;;;7.13;1.57;;;;;;;21.56;52.93;101104.47;4990950;28;20420;-70
2022/05/26 10:31:35;;;;;;;7.30;1.83;;;;;;;21.58;52.36;101107.81;4975374;28;20423;-72
2022/05/26 10:34:24;;;;;;;5.00;1.30;;;;;;;21.58;52.30;101114.38;4991969;28;20440;-70
2022/05/26 10:37:14;;;;;;;6.83;1.10;;;;;;;21.58;53.03;101108.63;4977523;28;20417;-71
2022/05/26 10:40:01;;;;;;;4.90;1.23;;;;;;;21.61;52.96;101113.63;4973617;28;20421;-73
2022/05/26 10:42:28;;;;;;;5.60;1.50;;;;;;;21.64;53.06;101110.00;4988611;28;20568;-72
2022/05/26 10:45:20;;;;;;;10.33;1.53;;;;;;;21.67;52.80;101105.53;4949643;28;20457;-73
2022/05/26 10:47:52;;;;;;;2.97;1.27;;;;;;;21.67;53.18;101109.22;4970150;28;20462;-72
2022/05/26 10:50:51;;;;;;;2.50;0.93;;;;;;;21.67;53.31;101112.09;4952674;28;20492;-74
2022/05/26 10:53:47;;;;;;;4.20;1.20;;;;;;;21.69;53.46;101117.50;4968331;28;20409;-71
2022/05/26 10:56:50;;;;;;;6.63;1.37;;;;;;;21.68;53.44;101101.44;4938339;28;20828;-70
2022/05/26 10:59:18;;;;;;;3.50;1.20;;;;;;;21.68;53.55;101102.28;4971883;28;20417;-74
2022/05/26 11:01:48;;;;;;;5.10;1.33;;;;;;;21.69;53.06;101103.13;4972277;28;20417;-70
2022/05/26 11:04:32;;;;;;;2.77;0.87;;;;;;;21.69;53.47;101109.72;4970840;28;20924;-71
2022/05/26 11:07:04;;;;;;;3.90;1.37;;;;;;;21.68;53.21;101105.16;4977707;28;20466;-72
2022/05/26 11:09:45;;;;;;;4.33;1.23;;;;;;;21.69;53.51;101106.84;4989979;28;20524;-72
2022/05/26 11:12:29;;;;;;;4.60;1.10;;;;;;;21.71;53.25;101110.16;4975054;28;20769;-73
2022/05/26 11:18:09;;;;;;;3.90;1.03;;;;;;;21.72;53.67;101097.44;4990358;28;20500;-72
2022/05/26 11:20:38;;;;;;;3.10;1.10;;;;;;;21.71;53.60;101095.78;4957781;28;20479;-70
2022/05/26 11:23:04;;;;;;;4.07;1.13;;;;;;;21.72;53.33;101094.56;4979821;28;20479;-74
2022/05/26 11:25:32;;;;;;;3.13;1.00;;;;;;;21.73;53.40;101101.97;5005562;28;20789;-73
2022/05/26 11:28:39;;;;;;;3.60;1.07;;;;;;;21.72;53.60;101096.63;4989835;28;20185;-73
2022/05/26 11:37:37;;;;;;;2.70;1.10;;;;;;;21.75;53.24;101088.06;4901208;28;20448;-73
2022/05/26 11:40:12;;;;;;;3.00;0.83;;;;;;;21.74;53.37;101089.28;4955711;28;20464;-73
2022/05/26 11:42:47;;;;;;;4.77;1.10;;;;;;;21.72;53.78;101085.13;4944112;28;20488;-72
2022/05/26 11:45:20;;;;;;;4.87;1.20;;;;;;;21.71;53.68;101087.16;4971417;28;20500;-70
2022/05/26 11:47:58;;;;;;;3.60;1.40;;;;;;;21.70;53.42;101078.91;4970252;28;20449;-73
2022/05/26 11:50:47;;;;;;;2.70;1.00;;;;;;;21.71;53.77;101092.06;4969075;28;20421;-70
2022/05/26 11:53:32;;;;;;;7.37;1.13;;;;;;;21.68;53.45;101085.03;4943604;28;20429;-70
2022/05/26 11:56:03;;;;;;;2.13;0.93;;;;;;;21.68;53.55;101085.03;4970901;28;20523;-70
2022/05/26 11:58:38;;;;;;;2.80;0.77;;;;;;;21.69;53.92;101085.88;4953742;28;20434;-74
2022/05/26 12:01:33;;;;;;;2.10;1.07;;;;;;;21.67;53.80;101080.47;4969563;28;20746;-72
2022/05/26 12:04:06;;;;;;;2.97;1.00;;;;;;;21.68;53.48;101084.19;4953676;28;20952;-72
2022/05/26 12:06:38;;;;;;;3.93;1.50;;;;;;;21.66;53.44;101087.44;4970243;28;21130;-70
2022/05/26 12:09:04;;;;;;;3.73;1.07;;;;;;;21.66;53.74;101083.72;4989772;28;20421;-73
2022/05/26 12:11:49;;;;;;;4.10;1.20;;;;;;;21.65;53.39;101097.28;4989438;28;20432;-72
2022/05/26 12:14:20;;;;;;;2.43;1.03;;;;;;;21.66;53.25;101096.06;4988706;28;20503;-72
2022/05/26 12:16:46;;;;;;;2.47;1.10;;;;;;;21.65;53.31;101090.69;4977454;28;20432;-70
2022/05/26 12:19:11;;;;;;;4.30;1.20;;;;;;;21.65;53.17;101084.94;5008503;28;20431;-70
2022/05/26 12:21:43;;;;;;;4.00;1.27;;;;;;;21.66;53.23;101086.59;4992086;28;20193;-73
2022/05/26 12:24:36;;;;;;;3.80;1.30;;;;;;;21.67;53.59;101083.34;4976844;28;20183;-72